createdAt,value
2022-08-22T00:02:36.992Z,3.87
2022-08-22T00:05:11.898Z,5.18
2022-08-22T00:08:00.892Z,4.47
2022-08-22T00:10:56.797Z,4.03
2022-08-22T00:14:02.590Z,3.10
2022-08-22T00:20:28.092Z,2.78
2022-08-22T00:22:55.324Z,2.97
2022-08-22T00:25:43.228Z,3.05
2022-08-22T00:28:38.920Z,4.57
2022-08-22T00:31:33.539Z,4.82
2022-08-22T00:34:06.318Z,2.97
2022-08-22T00:36:43.369Z,2.60
2022-08-22T00:39:35.865Z,3.95
2022-08-22T00:42:31.281Z,2.90
2022-08-22T00:44:58.724Z,3.22
2022-08-22T00:54:54.654Z,4.60
2022-08-22T00:57:36.661Z,6.07
2022-08-22T01:00:12.037Z,5.45
2022-08-22T01:02:52.283Z,4.18
2022-08-22T01:05:44.786Z,4.07
2022-08-22T01:08:26.400Z,5.35
2022-08-22T01:11:10.507Z,4.23
2022-08-22T01:13:50.267Z,4.28
2022-08-22T01:16:16.994Z,3.95
2022-08-22T01:19:18.950Z,8.25
2022-08-22T01:21:55.171Z,4.45
2022-08-22T01:24:37.253Z,5.83
2022-08-22T01:27:43.426Z,4.10
2022-08-22T01:30:27.595Z,5.57
2022-08-22T01:33:32.143Z,4.72
2022-08-22T01:36:19.931Z,3.37
2022-08-22T01:39:04.999Z,3.03
2022-08-22T01:41:37.915Z,5.47
2022-08-22T01:44:10.502Z,3.40
2022-08-22T01:46:46.725Z,4.43
2022-08-22T01:49:23.085Z,5.25
2022-08-22T01:52:05.936Z,2.90
2022-08-22T01:54:54.995Z,3.83
2022-08-22T01:57:23.905Z,3.83
2022-08-22T01:59:55.468Z,3.20
2022-08-22T02:02:40.745Z,5.95
2022-08-22T02:05:24.664Z,4.20
2022-08-22T02:08:03.658Z,4.65
2022-08-22T02:10:42.665Z,4.03
2022-08-22T02:13:12.962Z,5.22
2022-08-22T02:15:43.981Z,6.07
2022-08-22T02:18:31.123Z,2.87
2022-08-22T02:21:08.916Z,3.95
2022-08-22T02:23:44.478Z,4.25
2022-08-22T02:26:45.587Z,4.97
2022-08-22T02:29:15.496Z,3.62
2022-08-22T02:31:58.516Z,3.70
2022-08-22T02:34:32.769Z,3.92
2022-08-22T02:37:05.981Z,3.45
2022-08-22T02:39:39.303Z,5.47
2022-08-22T02:42:33.853Z,3.80
2022-08-22T02:45:12.817Z,6.50
2022-08-22T02:47:51.217Z,7.78
2022-08-22T02:50:31.287Z,5.05
2022-08-22T02:53:03.819Z,6.10
2022-08-22T02:55:38.907Z,5.72
2022-08-22T02:58:24.601Z,4.20
2022-08-22T03:01:33.443Z,6.80
2022-08-22T03:04:41.606Z,4.25
2022-08-22T03:07:20.580Z,4.93
2022-08-22T03:09:59.512Z,3.62
2022-08-22T03:13:10.540Z,5.70
2022-08-22T03:15:49.640Z,6.47
2022-08-22T03:18:28.511Z,5.95
2022-08-22T03:21:36.461Z,6.12
2022-08-22T03:24:24.312Z,5.50
2022-08-22T03:26:56.745Z,4.53
2022-08-22T03:29:32.944Z,5.43
2022-08-22T03:32:14.215Z,5.62
2022-08-22T03:34:56.198Z,5.40
2022-08-22T03:37:42.881Z,4.37
2022-08-22T03:40:46.161Z,4.40
2022-08-22T03:43:18.731Z,4.32
2022-08-22T03:46:14.889Z,7.68
2022-08-22T03:49:06.459Z,5.68
2022-08-22T03:51:52.218Z,6.90
2022-08-22T03:54:45.592Z,5.90
2022-08-22T03:57:23.355Z,6.50
2022-08-22T04:00:21.424Z,4.70
2022-08-22T04:03:06.207Z,6.15
2022-08-22T04:05:35.768Z,5.82
2022-08-22T04:08:26.474Z,5.27
2022-08-22T04:11:15.664Z,4.07
2022-08-22T04:14:36.705Z,5.55
2022-08-22T04:17:34.411Z,5.70
2022-08-22T04:20:10.244Z,6.50
2022-08-22T04:23:26.830Z,5.17
2022-08-22T04:26:18.915Z,7.32
2022-08-22T04:28:52.482Z,4.97
2022-08-22T04:31:31.483Z,6.32
2022-08-22T04:34:19.832Z,7.72
2022-08-22T04:36:56.763Z,5.13
2022-08-22T04:39:50.023Z,7.55
2022-08-22T04:42:32.628Z,5.43
2022-08-22T04:45:09.035Z,5.45
2022-08-22T04:48:01.185Z,6.05
2022-08-22T04:50:43.029Z,5.37
2022-08-22T04:53:31.623Z,6.50
2022-08-22T04:56:15.228Z,6.37
2022-08-22T04:58:47.762Z,7.87
2022-08-22T05:01:27.748Z,4.70
2022-08-22T05:04:02.643Z,4.93
2022-08-22T05:06:32.561Z,5.68
2022-08-22T05:09:04.441Z,4.57
2022-08-22T05:11:34.044Z,9.32
2022-08-22T05:14:07.852Z,5.53
2022-08-22T05:16:40.669Z,4.33
2022-08-22T05:19:31.197Z,5.90
2022-08-22T05:21:59.821Z,4.87
2022-08-22T05:24:48.493Z,5.05
2022-08-22T05:27:23.242Z,6.25
2022-08-22T05:29:55.197Z,5.97
2022-08-22T05:32:32.860Z,5.65
2022-08-22T05:35:03.169Z,4.30
2022-08-22T05:37:53.366Z,4.20
2022-08-22T05:40:24.707Z,7.07
2022-08-22T05:42:53.289Z,4.53
2022-08-22T05:45:21.491Z,5.12
2022-08-22T05:48:03.212Z,6.12
2022-08-22T05:50:36.196Z,4.18
2022-08-22T05:53:09.236Z,4.62
2022-08-22T05:55:54.396Z,5.03
2022-08-22T05:58:53.470Z,4.22
2022-08-22T06:01:23.593Z,7.28
2022-08-22T06:04:15.744Z,4.20
2022-08-22T06:07:07.163Z,5.65
2022-08-22T06:09:43.214Z,5.77
2022-08-22T06:12:26.425Z,6.37
2022-08-22T06:15:20.739Z,4.18
2022-08-22T06:17:51.394Z,4.40
2022-08-22T06:20:25.861Z,5.50
2022-08-22T06:22:59.497Z,15.37
2022-08-22T06:25:32.443Z,6.97
2022-08-22T06:28:06.192Z,6.93
2022-08-22T06:30:35.403Z,5.18
2022-08-22T06:33:07.832Z,5.55
2022-08-22T06:36:08.215Z,5.57
2022-08-22T06:39:00.546Z,7.37
2022-08-22T06:41:30.974Z,5.95
2022-08-22T06:44:00.477Z,5.43
2022-08-22T06:46:29.327Z,5.53
2022-08-22T06:49:00.410Z,7.53
2022-08-22T06:51:29.234Z,5.95
2022-08-22T06:54:03.693Z,8.30
2022-08-22T06:56:36.371Z,10.23
2022-08-22T06:59:12.726Z,6.15
2022-08-22T07:01:48.320Z,6.60
2022-08-22T07:04:15.993Z,8.48
2022-08-22T07:06:50.180Z,7.47
2022-08-22T07:09:23.623Z,8.27
2022-08-22T07:11:52.288Z,9.15
2022-08-22T07:14:29.392Z,7.37
2022-08-22T07:17:03.156Z,6.62
2022-08-22T07:19:33.567Z,8.23
2022-08-22T07:22:12.237Z,7.35
2022-08-22T07:24:48.653Z,8.77
2022-08-22T07:27:57.008Z,6.23
2022-08-22T07:30:34.513Z,5.00
2022-08-22T07:33:21.023Z,10.23
2022-08-22T07:36:23.219Z,5.78
2022-08-22T07:39:13.342Z,8.10
2022-08-22T07:41:45.949Z,8.93
2022-08-22T07:44:22.991Z,6.10
2022-08-22T07:47:18.090Z,8.52
2022-08-22T07:50:04.733Z,6.85
2022-08-22T07:52:40.645Z,9.60
2022-08-22T07:55:17.326Z,9.20
2022-08-22T07:57:49.953Z,11.70
2022-08-22T08:00:20.205Z,10.80
2022-08-22T08:02:52.267Z,9.40
2022-08-22T08:05:24.091Z,8.05
2022-08-22T08:07:54.541Z,11.23
2022-08-22T08:10:32.963Z,10.60
2022-08-22T08:13:03.880Z,12.65
2022-08-22T08:15:34.986Z,12.60
2022-08-22T08:18:11.523Z,8.95
2022-08-22T08:20:39.464Z,9.33
2022-08-22T08:23:10.802Z,10.30
2022-08-22T08:25:54.412Z,8.88
2022-08-22T08:28:34.323Z,13.52
2022-08-22T08:31:10.247Z,11.93
2022-08-22T08:33:41.113Z,10.70
2022-08-22T08:36:34.547Z,12.05
2022-08-22T08:39:19.569Z,10.25
2022-08-22T08:42:15.073Z,12.63
2022-08-22T08:45:06.738Z,13.57
2022-08-22T08:48:05.862Z,11.40
2022-08-22T08:50:50.277Z,8.70
2022-08-22T08:53:47.297Z,14.10
2022-08-22T08:56:32.288Z,14.68
2022-08-22T08:59:02.079Z,12.40
2022-08-22T09:01:49.937Z,12.53
2022-08-22T09:04:17.963Z,12.30
2022-08-22T09:07:18.880Z,12.48
2022-08-22T09:10:00.750Z,11.43
2022-08-22T09:13:12.581Z,13.70
2022-08-22T09:16:04.877Z,11.57
2022-08-22T09:18:59.283Z,10.20
2022-08-22T09:22:14.173Z,11.77
2022-08-22T09:25:06.514Z,13.65
2022-08-22T09:27:59.483Z,13.07
2022-08-22T09:31:16.787Z,11.30
2022-08-22T09:34:28.438Z,11.07
2022-08-22T09:37:04.486Z,12.37
2022-08-22T09:40:00.269Z,10.48
2022-08-22T09:42:44.754Z,11.35
2022-08-22T09:45:17.917Z,11.70
2022-08-22T09:48:15.424Z,11.52
2022-08-22T09:51:01.656Z,10.82
2022-08-22T09:53:44.560Z,9.75
2022-08-22T09:56:26.529Z,9.77
2022-08-22T09:59:09.870Z,8.40
2022-08-22T10:01:53.293Z,9.38
2022-08-22T10:04:34.659Z,10.45
2022-08-22T10:07:26.397Z,11.00
2022-08-22T10:10:12.156Z,12.37
2022-08-22T10:13:23.825Z,10.20
2022-08-22T10:16:09.587Z,8.18
2022-08-22T10:18:52.819Z,7.12
2022-08-22T10:21:21.719Z,6.93
2022-08-22T10:23:53.765Z,10.90
2022-08-22T10:26:22.958Z,7.43
2022-08-22T10:29:31.493Z,11.50
2022-08-22T10:32:18.360Z,8.23
2022-08-22T10:34:59.429Z,9.20
2022-08-22T10:37:36.805Z,9.35
2022-08-22T10:40:28.833Z,7.63
2022-08-22T10:43:13.558Z,6.25
2022-08-22T10:45:45.655Z,6.10
2022-08-22T10:48:19.102Z,8.95
2022-08-22T10:50:50.390Z,10.63
2022-08-22T10:53:34.780Z,7.60
2022-08-22T10:56:27.352Z,7.07
2022-08-22T10:59:16.335Z,8.35
2022-08-22T11:01:58.973Z,7.10
2022-08-22T11:05:02.306Z,7.05
2022-08-22T11:07:29.694Z,10.67
2022-08-22T11:10:09.238Z,8.05
2022-08-22T11:12:44.520Z,9.13
2022-08-22T11:15:27.266Z,10.80
2022-08-22T11:18:23.222Z,8.93
2022-08-22T11:21:01.057Z,8.57
2022-08-22T11:23:54.728Z,7.82
2022-08-22T11:26:47.266Z,8.52
2022-08-22T11:29:38.820Z,7.18
2022-08-22T11:32:24.644Z,7.68
2022-08-22T11:35:00.609Z,7.40
2022-08-22T11:37:58.920Z,9.30
2022-08-22T11:42:52.895Z,8.70
2022-08-22T11:45:24.223Z,10.38
2022-08-22T11:48:09.223Z,7.90
2022-08-22T11:50:43.505Z,8.85
2022-08-22T11:53:11.316Z,21.25
2022-08-22T11:55:53.934Z,10.20
2022-08-22T11:58:48.987Z,10.48
2022-08-22T12:01:21.677Z,17.45
2022-08-22T12:03:58.411Z,13.35
2022-08-22T12:06:59.488Z,14.48
2022-08-22T12:09:40.411Z,11.07
2022-08-22T12:12:13.473Z,17.60
2022-08-22T12:15:11.803Z,19.98
2022-08-22T12:18:01.982Z,8.48
2022-08-22T12:20:40.861Z,10.32
2022-08-22T12:23:50.383Z,15.90
2022-08-22T12:27:02.573Z,11.23
2022-08-22T12:29:55.691Z,16.43
2022-08-22T12:32:43.910Z,10.73
2022-08-22T12:35:30.085Z,12.93
2022-08-22T12:38:41.787Z,9.75
2022-08-22T12:41:27.790Z,9.30
2022-08-22T12:44:23.132Z,10.00
2022-08-22T12:47:14.534Z,10.18
2022-08-22T12:50:14.602Z,8.50
2022-08-22T12:53:18.286Z,11.38
2022-08-22T12:55:57.203Z,8.10
2022-08-22T12:58:36.468Z,8.60
2022-08-22T13:01:08.283Z,10.68
2022-08-22T13:03:43.500Z,11.23
2022-08-22T13:06:35.613Z,7.85
2022-08-22T13:09:11.721Z,8.70
2022-08-22T13:11:41.803Z,6.20
2022-08-22T13:14:15.614Z,10.63
2022-08-22T13:16:52.432Z,10.20
2022-08-22T13:19:24.035Z,10.00
2022-08-22T13:22:08.233Z,9.48
2022-08-22T13:24:52.314Z,9.23
2022-08-22T13:27:26.016Z,8.00
2022-08-22T13:30:00.457Z,9.30
2022-08-22T13:32:33.304Z,9.80
2022-08-22T13:35:01.787Z,8.10
2022-08-22T13:37:41.250Z,7.07
2022-08-22T13:40:13.457Z,8.43
2022-08-22T13:42:47.996Z,8.27
2022-08-22T13:45:24.092Z,8.93
2022-08-22T13:48:03.983Z,7.28
2022-08-22T13:50:54.081Z,8.52
2022-08-22T13:53:41.618Z,7.62
2022-08-22T13:56:25.727Z,7.57
2022-08-22T13:59:03.674Z,7.93
2022-08-22T14:01:53.738Z,7.47
2022-08-22T14:04:34.860Z,9.25
2022-08-22T14:07:06.113Z,9.23
2022-08-22T14:09:47.345Z,7.90
2022-08-22T14:12:21.947Z,8.35
2022-08-22T14:14:56.672Z,7.07
2022-08-22T14:17:34.413Z,8.27
2022-08-22T14:20:14.847Z,8.00
2022-08-22T14:23:06.545Z,7.70
2022-08-22T14:25:39.771Z,8.68
2022-08-22T14:28:11.190Z,8.38
2022-08-22T14:31:01.077Z,9.07
2022-08-22T14:33:39.950Z,10.55
2022-08-22T14:36:21.985Z,8.70
2022-08-22T14:39:01.939Z,10.98
2022-08-22T14:41:55.552Z,8.15
2022-08-22T14:44:39.395Z,8.90
2022-08-22T14:47:54.534Z,8.85
2022-08-22T14:50:12.009Z,10.68
2022-08-22T14:52:45.309Z,10.13
2022-08-22T14:55:20.530Z,9.13
2022-08-22T14:57:57.730Z,7.90
2022-08-22T15:00:39.862Z,7.97
2022-08-22T15:03:32.863Z,11.20
2022-08-22T15:06:03.319Z,9.30
2022-08-22T15:08:34.616Z,10.35
2022-08-22T15:11:11.153Z,7.37
2022-08-22T15:13:43.316Z,6.78
2022-08-22T15:16:17.796Z,8.35
2022-08-22T15:18:51.797Z,10.45
2022-08-22T15:21:24.477Z,8.90
2022-08-22T15:23:59.778Z,8.60
2022-08-22T15:26:32.780Z,6.65
2022-08-22T15:29:07.086Z,8.05
2022-08-22T15:31:35.392Z,6.07
2022-08-22T15:34:13.225Z,4.97
2022-08-22T15:37:25.041Z,8.83
2022-08-22T15:39:58.291Z,11.60
2022-08-22T15:42:30.579Z,6.47
2022-08-22T15:44:59.302Z,5.70
2022-08-22T15:47:34.867Z,6.10
2022-08-22T15:50:10.407Z,5.17
2022-08-22T15:53:04.823Z,7.97
2022-08-22T15:55:37.091Z,6.22
2022-08-22T15:58:12.993Z,7.55
2022-08-22T16:00:45.032Z,6.62
2022-08-22T16:03:25.413Z,5.93
2022-08-22T16:05:56.997Z,7.82
2022-08-22T16:08:32.792Z,8.93
2022-08-22T16:11:03.320Z,6.00
2022-08-22T16:13:30.151Z,6.15
2022-08-22T16:16:11.219Z,8.97
2022-08-22T16:18:39.434Z,5.28
2022-08-22T16:21:13.548Z,7.05
2022-08-22T16:23:58.668Z,6.68
2022-08-22T16:26:31.398Z,8.90
2022-08-22T16:29:13.640Z,10.00
2022-08-22T16:31:58.382Z,17.60
2022-08-22T16:34:28.068Z,16.23
2022-08-22T16:36:54.834Z,18.85
2022-08-22T16:39:21.620Z,24.02
2022-08-22T16:42:14.952Z,33.73
2022-08-22T16:44:44.002Z,16.58
2022-08-22T16:47:13.279Z,13.88
2022-08-22T16:49:56.330Z,16.25
2022-08-22T16:52:26.372Z,14.32
2022-08-22T16:55:06.325Z,16.13
2022-08-22T16:57:36.245Z,15.43
2022-08-22T17:00:32.170Z,14.63
2022-08-22T17:03:34.883Z,11.68
2022-08-22T17:06:32.492Z,13.50
2022-08-22T17:09:30.356Z,12.10
2022-08-22T17:12:37.232Z,12.35
2022-08-22T17:15:36.843Z,9.35
2022-08-22T17:18:22.201Z,12.77
2022-08-22T17:21:04.639Z,13.00
2022-08-22T17:23:50.220Z,10.43
2022-08-22T17:26:48.043Z,7.97
2022-08-22T17:29:28.973Z,8.18
2022-08-22T17:32:22.032Z,9.07
2022-08-22T17:34:59.457Z,7.32
2022-08-22T17:37:50.875Z,9.93
2022-08-22T17:40:25.905Z,10.00
2022-08-22T17:43:21.018Z,10.63
2022-08-22T17:45:54.330Z,8.77
2022-08-22T17:48:27.051Z,8.48
2022-08-22T17:51:00.269Z,14.67
2022-08-22T17:53:44.856Z,9.95
2022-08-22T17:56:20.182Z,12.32
2022-08-22T17:59:09.149Z,14.27
2022-08-22T18:01:51.218Z,13.98
2022-08-22T18:04:59.519Z,13.30
2022-08-22T18:07:49.358Z,9.85
2022-08-22T18:10:22.071Z,10.07
2022-08-22T18:13:03.489Z,11.85
2022-08-22T18:15:43.670Z,14.13
2022-08-22T18:18:33.503Z,10.00
2022-08-22T18:21:15.474Z,9.38
2022-08-22T18:23:52.084Z,9.18
2022-08-22T18:26:44.821Z,13.52
2022-08-22T18:29:16.797Z,8.70
2022-08-22T18:31:46.683Z,9.30
2022-08-22T18:34:20.856Z,15.70
2022-08-22T18:36:56.034Z,9.98
2022-08-22T18:39:31.777Z,11.02
2022-08-22T18:42:21.995Z,11.35
2022-08-22T18:44:48.819Z,9.57
2022-08-22T18:47:34.643Z,8.48
2022-08-22T18:50:32.921Z,6.70
2022-08-22T18:53:00.367Z,8.50
2022-08-22T18:55:27.678Z,4.30
2022-08-22T18:58:28.316Z,4.90
2022-08-22T19:01:21.618Z,4.20
2022-08-22T19:04:24.364Z,3.03
2022-08-22T19:07:32.571Z,3.28
2022-08-22T19:10:05.816Z,4.53
2022-08-22T19:13:01.872Z,2.27
2022-08-22T19:18:28.490Z,3.70
2022-08-22T19:21:33.024Z,4.03
2022-08-22T19:24:00.904Z,6.55
2022-08-22T19:26:34.630Z,3.03
2022-08-22T19:29:16.834Z,4.50
2022-08-22T19:31:49.601Z,5.10
2022-08-22T19:34:27.292Z,2.90
2022-08-22T19:37:32.161Z,4.03
2022-08-22T19:40:11.828Z,3.03
2022-08-22T19:42:44.487Z,4.85
2022-08-22T19:45:26.770Z,2.80
2022-08-22T19:47:58.740Z,3.53
2022-08-22T19:50:33.407Z,3.62
2022-08-22T19:53:33.738Z,4.93
2022-08-22T19:56:03.876Z,3.60
2022-08-22T19:58:50.952Z,4.03
2022-08-22T20:01:41.304Z,4.95
2022-08-22T20:04:56.065Z,4.07
2022-08-22T20:07:52.467Z,4.23
2022-08-22T20:10:50.337Z,3.60
2022-08-22T20:13:24.123Z,5.50
2022-08-22T20:16:11.164Z,3.97
2022-08-22T20:19:18.811Z,6.05
2022-08-22T20:21:58.780Z,6.67
2022-08-22T20:24:44.526Z,4.50
2022-08-22T20:27:26.700Z,4.53
2022-08-22T20:30:07.672Z,7.32
2022-08-22T20:32:51.158Z,4.03
2022-08-22T20:35:27.061Z,8.67
2022-08-22T20:38:09.203Z,6.37
2022-08-22T20:40:55.878Z,3.87
2022-08-22T20:43:49.586Z,5.30
2022-08-22T20:46:25.545Z,4.55
2022-08-22T20:48:55.751Z,6.03
2022-08-22T20:51:25.669Z,6.82
2022-08-22T20:53:58.829Z,4.93
2022-08-22T20:56:53.129Z,5.68
2022-08-22T20:59:29.660Z,6.72
2022-08-22T21:02:34.232Z,5.93
2022-08-22T21:05:00.949Z,6.68
2022-08-22T21:07:36.909Z,6.28
2022-08-22T21:10:23.132Z,5.65
2022-08-22T21:13:07.234Z,5.80
2022-08-22T21:15:43.839Z,8.37
2022-08-22T21:18:23.213Z,3.87
2022-08-22T21:20:50.854Z,6.75
2022-08-22T21:23:19.702Z,4.40
2022-08-22T21:26:02.619Z,3.85
2022-08-22T21:28:31.787Z,7.30
2022-08-22T21:31:07.001Z,3.90
2022-08-22T21:33:33.852Z,3.00
2022-08-22T21:36:01.038Z,4.25
2022-08-22T21:38:28.206Z,2.92
2022-08-22T21:41:01.968Z,3.87
2022-08-22T21:43:34.111Z,3.35
2022-08-22T21:46:01.059Z,5.40
2022-08-22T21:48:41.048Z,4.85
2022-08-22T21:51:22.659Z,4.03
2022-08-22T21:53:58.225Z,5.27
2022-08-22T21:56:37.008Z,3.87
2022-08-22T21:59:24.995Z,4.75
2022-08-22T22:01:53.200Z,3.85
2022-08-22T22:04:22.819Z,5.50
2022-08-22T22:06:49.666Z,6.73
2022-08-22T22:09:16.493Z,4.00
2022-08-22T22:11:43.416Z,4.37
2022-08-22T22:14:10.306Z,4.70
2022-08-22T22:16:38.463Z,3.85
2022-08-22T22:19:08.648Z,4.57
2022-08-22T22:21:36.957Z,5.20
2022-08-22T22:24:04.085Z,5.87
2022-08-22T22:26:31.667Z,4.25
2022-08-22T22:28:59.226Z,7.57
2022-08-22T22:31:26.169Z,5.17
2022-08-22T22:33:52.995Z,3.58
2022-08-22T22:36:23.504Z,5.97
2022-08-22T22:38:51.592Z,3.65
2022-08-22T22:41:21.251Z,4.25
2022-08-22T22:43:48.045Z,5.03
2022-08-22T22:46:14.901Z,4.15
2022-08-22T22:48:41.709Z,4.43
2022-08-22T22:51:10.404Z,7.05
2022-08-22T22:53:42.628Z,5.32
2022-08-22T22:56:13.742Z,6.90
2022-08-22T22:58:42.396Z,4.72
2022-08-22T23:01:19.299Z,9.65
2022-08-22T23:03:47.315Z,4.03
2022-08-22T23:06:19.587Z,4.25
2022-08-22T23:08:47.558Z,7.73
2022-08-22T23:11:19.355Z,5.78
2022-08-22T23:13:48.222Z,4.53
2022-08-22T23:16:21.674Z,7.75
2022-08-22T23:18:49.722Z,5.60
2022-08-22T23:21:18.399Z,3.57
2022-08-22T23:23:46.283Z,4.85
2022-08-22T23:26:14.347Z,4.70
2022-08-22T23:28:41.444Z,4.12
2022-08-22T23:31:33.285Z,4.75
2022-08-22T23:34:11.400Z,5.70
2022-08-22T23:36:40.562Z,4.95
2022-08-22T23:39:09.013Z,5.75
2022-08-22T23:41:36.773Z,5.55
2022-08-22T23:44:06.763Z,4.93
2022-08-22T23:46:35.759Z,6.83
2022-08-22T23:49:04.332Z,8.93
2022-08-22T23:51:31.220Z,5.75
2022-08-22T23:53:59.564Z,6.65
2022-08-22T23:56:29.447Z,4.37
2022-08-22T23:58:57.313Z,5.10
